Time;durP1;ratioP1;P1;durP2;ratioP2;P2;SDS_P1;SDS_P2;PMS_P1;PMS_P2;Temp;Humidity;BMP_temperature;BMP_pressure;BME280_temperature;BME280_humidity;BME280_pressure;Samples;Min_cycle;Max_cycle;Signal;HPM_P1;HPM_P2
2023/10/07 03:00:37;;;;;;;10.10;4.28;;;17.10;74.50;;;;;;5040603;28;20083;-91
2023/10/07 03:06:00;;;;;;;11.05;3.80;;;17.10;74.40;;;;;;5047634;28;20043;-90
2023/10/07 03:11:20;;;;;;;44.90;5.00;;;17.10;74.40;;;;;;5046908;28;20052;-93
2023/10/07 03:13:46;;;;;;;8.50;3.90;;;17.10;74.50;;;;;;5042120;28;20033;-93
2023/10/07 03:21:55;;;;;;;9.88;3.10;;;17.10;74.00;;;;;;5043775;28;20055;-92
2023/10/07 03:24:41;;;;;;;15.88;3.05;;;17.10;74.20;;;;;;5027761;28;20108;-89
2023/10/07 03:27:10;;;;;;;13.32;4.55;;;17.10;74.10;;;;;;5040983;28;20144;-92
2023/10/07 03:29:37;;;;;;;11.70;3.75;;;17.10;74.10;;;;;;5030862;28;20059;-90
2023/10/07 03:32:12;;;;;;;9.95;3.40;;;17.10;74.00;;;;;;5031046;28;20474;-91
2023/10/07 03:34:43;;;;;;;7.03;2.90;;;17.10;74.00;;;;;;5042963;28;20026;-92
2023/10/07 03:39:57;;;;;;;14.32;4.00;;;17.00;73.90;;;;;;5045358;28;20390;-92
2023/10/07 03:42:23;;;;;;;8.02;3.55;;;17.10;73.90;;;;;;5040016;28;20060;-91
2023/10/07 03:44:49;;;;;;;10.95;4.40;;;17.10;73.70;;;;;;5044363;28;20021;-91
2023/10/07 03:47:15;;;;;;;10.27;3.55;;;17.00;73.60;;;;;;5044268;28;20095;-90
2023/10/07 03:49:42;;;;;;;8.93;3.70;;;17.00;73.70;;;;;;5045378;28;20533;-92
2023/10/07 03:52:12;;;;;;;13.35;3.90;;;17.00;73.40;;;;;;5050552;28;20016;-91
2023/10/07 03:54:42;;;;;;;8.88;3.35;;;17.00;73.20;;;;;;5050654;28;20028;-90
2023/10/07 03:57:08;;;;;;;8.70;3.63;;;17.00;73.30;;;;;;5024877;28;20041;-91
2023/10/07 03:59:34;;;;;;;8.40;3.35;;;17.00;73.50;;;;;;5041756;28;20033;-89
2023/10/07 04:02:00;;;;;;;10.18;3.58;;;17.00;74.10;;;;;;5042436;28;20035;-90
2023/10/07 04:04:27;;;;;;;11.60;3.05;;;17.00;73.20;;;;;;5047397;28;20037;-91
2023/10/07 04:06:53;;;;;;;7.65;3.05;;;17.10;73.10;;;;;;5041663;28;20079;-93
2023/10/07 04:09:27;;;;;;;13.50;3.60;;;17.00;72.90;;;;;;5048998;28;20025;-92
2023/10/07 04:11:52;;;;;;;8.43;3.15;;;17.00;73.10;;;;;;5026924;28;20033;-90
2023/10/07 04:14:35;;;;;;;10.05;3.92;;;17.10;73.10;;;;;;5043686;28;20013;-90
2023/10/07 04:17:11;;;;;;;5.85;3.15;;;17.00;73.20;;;;;;5045756;28;20033;-91
2023/10/07 04:20:14;;;;;;;8.07;3.60;;;17.00;72.50;;;;;;5057230;28;20036;-90
2023/10/07 04:22:24;;;;;;;14.60;3.80;;;17.00;72.90;;;;;;5050691;28;20033;-91
2023/10/07 04:24:50;;;;;;;8.25;4.10;;;17.00;72.90;;;;;;5052436;28;20029;-90
2023/10/07 04:27:20;;;;;;;12.13;4.03;;;17.00;72.50;;;;;;5040654;28;20074;-90
2023/10/07 04:29:52;;;;;;;9.13;3.15;;;17.00;72.70;;;;;;5059067;28;20025;-91
2023/10/07 04:32:22;;;;;;;10.85;3.63;;;17.00;72.70;;;;;;5049155;28;20506;-90
2023/10/07 04:35:06;;;;;;;8.88;3.15;;;17.00;72.80;;;;;;5034210;28;20028;-91
2023/10/07 04:37:51;;;;;;;10.68;3.78;;;17.00;72.60;;;;;;5052847;28;21297;-92
2023/10/07 04:45:37;;;;;;;6.57;3.10;;;17.00;72.30;;;;;;5042928;28;20032;-92
2023/10/07 04:48:24;;;;;;;11.68;3.50;;;17.50;72.70;;;;;;5043743;28;20497;-91
2023/10/07 04:51:03;;;;;;;13.18;3.63;;;17.00;72.20;;;;;;5047611;28;20037;-91
2023/10/07 04:53:39;;;;;;;14.88;3.50;;;17.00;72.30;;;;;;5043432;28;20035;-91
2023/10/07 04:56:09;;;;;;;11.00;3.67;;;17.00;72.20;;;;;;5034130;28;20033;-92
2023/10/07 04:58:39;;;;;;;12.65;3.63;;;17.00;72.10;;;;;;5022874;28;20363;-91
2023/10/07 05:01:08;;;;;;;8.82;3.40;;;17.00;72.10;;;;;;5042166;28;20040;-93
2023/10/07 05:03:38;;;;;;;9.38;3.50;;;17.00;71.90;;;;;;5044350;28;20114;-91
2023/10/07 05:06:04;;;;;;;10.30;4.00;;;17.00;71.90;;;;;;5021360;28;20112;-93
2023/10/07 05:08:30;;;;;;;7.95;3.42;;;17.00;71.80;;;;;;5030275;28;20036;-90
2023/10/07 05:11:04;;;;;;;9.38;3.50;;;17.00;72.00;;;;;;5040343;28;20478;-92
2023/10/07 05:13:32;;;;;;;8.23;3.50;;;17.00;71.80;;;;;;5023605;28;20056;-92
2023/10/07 05:15:58;;;;;;;7.38;3.58;;;17.00;71.50;;;;;;5049979;28;20017;-92
2023/10/07 05:18:24;;;;;;;9.43;3.53;;;17.00;71.40;;;;;;5031333;28;20020;-93
2023/10/07 05:20:51;;;;;;;8.63;3.53;;;17.00;71.50;;;;;;5042056;28;20064;-92
2023/10/07 05:23:18;;;;;;;8.38;4.45;;;17.00;71.60;;;;;;5049041;28;20036;-93
2023/10/07 05:25:49;;;;;;;10.13;3.10;;;17.00;71.30;;;;;;5047495;28;20117;-93
2023/10/07 05:28:22;;;;;;;11.82;3.92;;;17.00;71.40;;;;;;5045352;28;20053;-89
2023/10/07 05:30:52;;;;;;;6.55;3.20;;;16.90;71.10;;;;;;5032626;28;20438;-91
2023/10/07 05:33:24;;;;;;;10.27;3.67;;;16.90;71.10;;;;;;5048094;28;20118;-91
2023/10/07 05:35:50;;;;;;;10.27;3.72;;;16.90;71.20;;;;;;5039414;28;20047;-93
2023/10/07 05:38:17;;;;;;;8.98;3.28;;;16.90;71.10;;;;;;5044471;28;20085;-92
2023/10/07 05:40:43;;;;;;;8.43;3.50;;;16.90;71.00;;;;;;5040761;28;20095;-92
2023/10/07 05:43:08;;;;;;;10.70;3.65;;;17.00;71.10;;;;;;5038185;28;20018;-93
2023/10/07 05:45:35;;;;;;;10.43;3.17;;;17.00;71.00;;;;;;5044619;28;20022;-92
2023/10/07 05:48:04;;;;;;;9.80;3.67;;;16.90;70.60;;;;;;5023819;28;20032;-90
2023/10/07 05:50:32;;;;;;;8.75;3.67;;;16.90;70.90;;;;;;5044224;28;20025;-92
2023/10/07 05:52:59;;;;;;;6.88;3.35;;;16.90;70.70;;;;;;5045829;28;20120;-92
2023/10/07 05:55:25;;;;;;;10.50;3.50;;;17.00;70.70;;;;;;5032701;28;20116;-94
2023/10/07 05:57:52;;;;;;;8.27;3.33;;;16.90;70.40;;;;;;5042572;28;20097;-92
2023/10/07 06:00:18;;;;;;;9.43;3.63;;;16.90;70.50;;;;;;5028774;28;20477;-91
2023/10/07 06:02:44;;;;;;;6.68;3.28;;;17.00;70.50;;;;;;5041599;28;20025;-92
2023/10/07 06:05:10;;;;;;;8.75;3.25;;;16.90;70.80;;;;;;5042731;28;20024;-91
2023/10/07 06:07:38;;;;;;;8.45;3.63;;;17.00;70.80;;;;;;5046730;28;20021;-90
2023/10/07 06:10:09;;;;;;;9.90;3.38;;;17.00;70.30;;;;;;5037334;28;20029;-90
2023/10/07 06:12:35;;;;;;;9.35;3.40;;;16.90;70.40;;;;;;5031661;28;20028;-94
2023/10/07 06:15:01;;;;;;;14.77;3.38;;;16.90;70.60;;;;;;5044833;28;20025;-89
2023/10/07 06:17:26;;;;;;;11.23;4.22;;;17.40;70.50;;;;;;5043925;28;20032;-90
2023/10/07 06:19:52;;;;;;;10.75;3.35;;;16.90;70.20;;;;;;5044756;28;20034;-90
2023/10/07 06:22:18;;;;;;;15.80;3.85;;;16.90;70.20;;;;;;5049550;28;20096;-93
2023/10/07 06:24:44;;;;;;;10.40;3.60;;;16.90;70.00;;;;;;5035660;28;20021;-93
2023/10/07 06:27:13;;;;;;;10.18;4.10;;;16.90;70.00;;;;;;5049323;28;20378;-91
2023/10/07 06:29:43;;;;;;;8.25;3.75;;;16.90;70.10;;;;;;5027988;28;20020;-91
2023/10/07 06:32:22;;;;;;;11.45;4.10;;;16.90;69.90;;;;;;5052596;28;20034;-91
2023/10/07 06:34:48;;;;;;;11.13;4.18;;;16.90;69.70;;;;;;5035867;28;20032;-80
2023/10/07 06:37:14;;;;;;;9.45;4.25;;;16.90;69.00;;;;;;5043106;28;20060;-93
2023/10/07 06:39:40;;;;;;;11.88;4.57;;;16.40;65.80;;;;;;5039947;28;20060;-93
2023/10/07 06:42:06;;;;;;;9.55;3.60;;;16.40;66.70;;;;;;5030897;28;20028;-91
2023/10/07 06:44:32;;;;;;;11.57;3.85;;;16.60;67.10;;;;;;5037915;28;20033;-93
2023/10/07 06:47:02;;;;;;;11.90;3.88;;;16.70;67.20;;;;;;5047835;28;20385;-94
2023/10/07 06:49:34;;;;;;;14.02;4.18;;;16.70;67.40;;;;;;5051242;28;20044;-93
2023/10/07 06:52:03;;;;;;;13.85;4.40;;;16.80;67.50;;;;;;5039902;28;20036;-94
2023/10/07 06:54:34;;;;;;;10.93;4.07;;;16.80;68.30;;;;;;5043860;28;20426;-93
2023/10/07 06:57:04;;;;;;;11.05;4.18;;;16.80;67.70;;;;;;5049723;28;20065;-93
2023/10/07 06:59:30;;;;;;;13.90;4.18;;;16.80;67.80;;;;;;5050780;28;20070;-93
2023/10/07 07:02:05;;;;;;;9.70;3.97;;;16.80;67.90;;;;;;5033419;28;20049;-93
2023/10/07 07:04:31;;;;;;;8.10;3.47;;;16.80;68.80;;;;;;5027979;28;20440;-91
2023/10/07 07:12:17;;;;;;;13.00;4.18;;;16.90;68.30;;;;;;5051160;28;20063;-94
2023/10/07 07:15:04;;;;;;;17.67;4.22;;;16.90;68.40;;;;;;5038175;28;20025;-92
2023/10/07 07:22:35;;;;;;;13.18;3.80;;;16.90;68.80;;;;;;5043503;28;20116;-93
2023/10/07 07:25:04;;;;;;;13.18;4.20;;;17.00;69.00;;;;;;5049609;28;20052;-93
2023/10/07 07:27:34;;;;;;;11.07;3.92;;;17.00;69.00;;;;;;5042265;28;20035;-93
2023/10/07 07:30:17;;;;;;;12.30;4.63;;;17.00;69.30;;;;;;5041021;28;20238;-93
2023/10/07 07:32:44;;;;;;;9.00;3.30;;;17.00;69.30;;;;;;5047351;28;20025;-93
2023/10/07 07:35:10;;;;;;;10.55;2.92;;;17.00;69.40;;;;;;5040538;28;20461;-94
2023/10/07 07:37:37;;;;;;;12.93;4.75;;;17.00;69.70;;;;;;5036206;28;20021;-93
2023/10/07 07:40:09;;;;;;;7.95;3.67;;;17.00;69.90;;;;;;5050812;28;20060;-93
2023/10/07 07:42:35;;;;;;;7.70;3.40;;;17.00;69.90;;;;;;5044238;28;20021;-91
2023/10/07 07:45:15;;;;;;;11.35;4.05;;;17.00;69.80;;;;;;5047813;28;20075;-93
2023/10/07 07:47:41;;;;;;;8.27;3.53;;;17.00;70.10;;;;;;5042404;28;20033;-92
2023/10/07 07:50:08;;;;;;;9.52;3.50;;;17.00;70.10;;;;;;5044004;28;20031;-94
2023/10/07 07:52:34;;;;;;;9.35;4.55;;;17.00;70.10;;;;;;5048562;28;20053;-94
2023/10/07 07:54:59;;;;;;;8.55;3.67;;;17.00;70.20;;;;;;5037745;28;20055;-94
2023/10/07 07:57:25;;;;;;;12.00;3.60;;;17.00;70.30;;;;;;5045822;28;20025;-95
2023/10/07 07:59:51;;;;;;;11.98;3.92;;;17.00;70.20;;;;;;5042733;28;20025;-92
2023/10/07 08:02:17;;;;;;;8.75;3.50;;;17.00;70.20;;;;;;5032627;28;20024;-93
2023/10/07 08:04:50;;;;;;;10.00;3.60;;;17.00;70.20;;;;;;5050262;28;20028;-93
2023/10/07 08:07:19;;;;;;;10.48;3.78;;;17.00;70.30;;;;;;5050961;28;20389;-92
2023/10/07 08:09:46;;;;;;;10.55;3.78;;;17.00;70.30;;;;;;5051681;28;20480;-93
2023/10/07 08:12:18;;;;;;;12.50;3.75;;;17.00;70.30;;;;;;5044545;28;20478;-91
2023/10/07 08:14:46;;;;;;;14.25;3.75;;;17.00;70.30;;;;;;5038953;28;20076;-91
2023/10/07 08:17:15;;;;;;;9.18;3.60;;;17.00;70.30;;;;;;5046169;28;20053;-91
2023/10/07 08:19:41;;;;;;;8.88;3.47;;;17.00;70.30;;;;;;5052607;28;20123;-95
2023/10/07 08:22:18;;;;;;;12.13;3.13;;;17.10;70.30;;;;;;5031098;28;20116;-93
2023/10/07 08:24:44;;;;;;;11.73;3.35;;;17.00;70.30;;;;;;5046683;28;20067;-92
2023/10/07 08:27:43;;;;;;;15.00;4.20;;;17.00;70.20;;;;;;5051638;28;20017;-93
2023/10/07 08:29:56;;;;;;;7.38;2.90;;;17.00;70.30;;;;;;5048693;28;20104;-93
2023/10/07 08:32:35;;;;;;;8.30;3.22;;;17.00;70.40;;;;;;5050834;28;20028;-92
2023/10/07 08:35:14;;;;;;;7.65;3.13;;;17.00;70.40;;;;;;5028790;28;20035;-95
2023/10/07 08:38:29;;;;;;;12.63;4.72;;;17.00;70.60;;;;;;5021323;28;20029;-93
2023/10/07 08:41:07;;;;;;;10.05;3.70;;;17.00;70.70;;;;;;5032528;28;20094;-93
2023/10/07 08:44:20;;;;;;;9.20;4.05;;;17.00;70.60;;;;;;5041619;28;20096;-95
2023/10/07 08:46:28;;;;;;;10.52;3.72;;;17.10;70.70;;;;;;5040739;28;20080;-93
2023/10/07 08:49:04;;;;;;;6.93;3.08;;;17.10;70.90;;;;;;5045607;28;20028;-93
2023/10/07 08:51:40;;;;;;;9.43;3.75;;;17.10;70.70;;;;;;5052854;28;20451;-94
2023/10/07 08:54:10;;;;;;;7.40;2.88;;;17.10;70.70;;;;;;5033774;28;20029;-93
2023/10/07 08:56:37;;;;;;;;;;;17.10;70.70;;;;;;5040589;28;20092;-94
2023/10/07 08:59:12;;;;;;;10.20;3.05;;;17.10;70.80;;;;;;5047869;28;20021;-96
2023/10/07 09:01:44;;;;;;;7.05;3.25;;;17.10;70.70;;;;;;5044126;28;20095;-94
2023/10/07 09:04:11;;;;;;;8.90;3.70;;;17.10;70.80;;;;;;5035877;28;20560;-95
2023/10/07 09:06:45;;;;;;;8.65;3.38;;;17.10;71.00;;;;;;5032873;28;20074;-93
2023/10/07 09:09:11;;;;;;;11.98;3.50;;;17.10;71.10;;;;;;5047687;28;20111;-95
2023/10/07 09:11:38;;;;;;;10.02;2.95;;;17.10;71.00;;;;;;5050461;28;20056;-94
2023/10/07 09:14:10;;;;;;;6.18;2.70;;;17.10;71.00;;;;;;5045849;28;20144;-95
2023/10/07 09:16:38;;;;;;;7.53;2.22;;;17.10;71.00;;;;;;5054214;28;20036;-93
2023/10/07 09:19:10;;;;;;;5.25;2.55;;;17.10;71.10;;;;;;5033442;28;20117;-93
2023/10/07 09:21:38;;;;;;;8.30;3.40;;;17.10;71.10;;;;;;5049990;28;20041;-94
2023/10/07 09:24:13;;;;;;;8.73;2.92;;;17.10;71.10;;;;;;5033979;28;20037;-79
2023/10/07 09:26:48;;;;;;;8.18;3.40;;;17.20;71.30;;;;;;5024141;28;20028;-78
2023/10/07 09:29:15;;;;;;;7.10;3.08;;;17.20;70.80;;;;;;5038644;28;20023;-79
2023/10/07 09:31:46;;;;;;;11.02;3.95;;;17.20;70.40;;;;;;5043985;28;20047;-80
2023/10/07 09:34:29;;;;;;;10.35;3.42;;;17.20;70.70;;;;;;5032646;28;20993;-84
2023/10/07 09:36:59;;;;;;;11.05;3.00;;;17.20;70.70;;;;;;5043083;28;20021;-81
2023/10/07 09:39:43;;;;;;;7.22;3.15;;;17.10;70.70;;;;;;5024149;28;20099;-80
2023/10/07 09:42:35;;;;;;;3.92;2.67;;;17.20;70.70;;;;;;5038837;28;20490;-80
2023/10/07 09:47:37;;;;;;;7.47;2.95;;;17.30;69.90;;;;;;5035885;28;20074;-82
2023/10/07 09:53:35;;;;;;;11.10;3.47;;;17.20;70.40;;;;;;5039400;28;20035;-83
2023/10/07 09:56:29;;;;;;;7.45;3.00;;;17.20;70.40;;;;;;4990707;28;20042;-83
2023/10/07 09:59:15;;;;;;;7.18;3.05;;;17.20;71.30;;;;;;4991395;28;20076;-82
2023/10/07 10:02:25;;;;;;;5.57;2.70;;;17.20;70.60;;;;;;5006693;28;20061;-83
2023/10/07 10:05:25;;;;;;;4.35;2.20;;;17.20;70.80;;;;;;4988895;28;20033;-81
2023/10/07 10:08:11;;;;;;;5.28;1.83;;;17.70;70.50;;;;;;5009588;28;20029;-82
2023/10/07 10:10:45;;;;;;;16.42;3.53;;;17.30;68.50;;;;;;4983845;28;20042;-80
2023/10/07 10:16:00;;;;;;;6.85;2.30;;;17.20;66.80;;;;;;5010484;28;20375;-81
2023/10/07 10:18:40;;;;;;;6.38;2.63;;;17.30;66.60;;;;;;5009265;28;20038;-80
2023/10/07 10:21:12;;;;;;;9.55;2.35;;;17.30;66.60;;;;;;4990875;28;20034;-81
2023/10/07 10:23:44;;;;;;;6.30;2.15;;;17.30;66.10;;;;;;5015015;28;20050;-81
2023/10/07 10:26:14;;;;;;;8.07;2.67;;;17.30;66.60;;;;;;4992853;28;20124;-80
2023/10/07 10:28:41;;;;;;;8.18;3.00;;;17.30;66.10;;;;;;5000070;28;20038;-81
2023/10/07 10:31:37;;;;;;;6.78;2.50;;;17.60;67.00;;;;;;5012520;28;20070;-80
2023/10/07 10:34:14;;;;;;;6.55;2.50;;;17.30;66.50;;;;;;5023755;28;20059;-80
2023/10/07 10:36:43;;;;;;;7.55;2.60;;;17.30;66.90;;;;;;5049362;28;20258;-80
2023/10/07 10:39:18;;;;;;;10.75;2.50;;;17.40;67.90;;;;;;5045001;28;20052;-80
2023/10/07 10:41:44;;;;;;;9.63;2.88;;;17.40;67.70;;;;;;5042019;28;20138;-80
2023/10/07 10:44:10;;;;;;;9.63;2.95;;;17.40;68.00;;;;;;5042294;28;20036;-80
2023/10/07 10:46:50;;;;;;;11.30;4.03;;;17.40;68.00;;;;;;5031980;28;20029;-80
2023/10/07 10:49:18;;;;;;;5.20;2.78;;;17.40;68.10;;;;;;5032246;28;20164;-81
2023/10/07 10:51:50;;;;;;;5.43;2.47;;;17.40;67.80;;;;;;5032923;28;20533;-80
2023/10/07 10:54:20;;;;;;;7.80;2.72;;;17.40;68.30;;;;;;5041953;28;20017;-82
2023/10/07 10:56:57;;;;;;;7.18;2.50;;;17.40;68.20;;;;;;5043158;28;20090;-80
2023/10/07 10:59:35;;;;;;;7.70;2.55;;;17.40;68.30;;;;;;5040092;28;20068;-81
2023/10/07 11:02:01;;;;;;;10.55;3.03;;;17.30;68.30;;;;;;5048156;28;20037;-80
2023/10/07 11:04:29;;;;;;;12.40;3.03;;;17.30;68.50;;;;;;5052206;28;20040;-80
2023/10/07 11:06:55;;;;;;;7.35;2.72;;;17.40;69.00;;;;;;5040698;28;20524;-80
2023/10/07 11:09:34;;;;;;;7.10;2.08;;;17.50;69.30;;;;;;5043922;28;20013;-81
2023/10/07 11:12:08;;;;;;;9.10;2.65;;;17.40;69.90;;;;;;5039791;28;20151;-80
2023/10/07 11:14:41;;;;;;;7.38;2.78;;;17.80;70.20;;;;;;5042449;28;20107;-80
2023/10/07 11:17:09;;;;;;;7.22;2.67;;;17.40;69.50;;;;;;5033382;28;20079;-80
2023/10/07 11:19:46;;;;;;;7.20;2.47;;;17.40;69.40;;;;;;5039240;28;20536;-80
2023/10/07 11:22:20;;;;;;;7.53;2.88;;;17.50;69.90;;;;;;5046395;28;20029;-80
2023/10/07 11:24:50;;;;;;;12.77;2.67;;;17.80;70.80;;;;;;5043136;28;20029;-81
2023/10/07 11:27:23;;;;;;;4.70;2.38;;;18.10;67.50;;;;;;5035837;28;20084;-81
2023/10/07 11:30:03;;;;;;;8.60;2.63;;;18.10;67.30;;;;;;5046985;28;20417;-81
2023/10/07 11:32:38;;;;;;;6.82;2.80;;;18.00;66.10;;;;;;5029876;28;20450;-80
2023/10/07 11:35:19;;;;;;;7.85;2.95;;;17.90;67.10;;;;;;5037869;28;20025;-81
2023/10/07 11:37:49;;;;;;;;;;;18.00;65.70;;;;;;5046936;28;20035;-81
2023/10/07 11:40:15;;;;;;;7.85;2.08;;;17.90;64.80;;;;;;5041069;28;19913;-80
2023/10/07 11:42:41;;;;;;;4.80;1.80;;;17.90;64.50;;;;;;5042522;28;20025;-78
2023/10/07 11:45:09;;;;;;;4.60;1.70;;;17.90;62.60;;;;;;5042146;28;20029;-80
2023/10/07 11:47:36;;;;;;;5.53;1.73;;;17.90;59.50;;;;;;5040990;28;20029;-82
2023/10/07 11:50:04;;;;;;;3.97;1.77;;;18.00;55.40;;;;;;5044087;28;20031;-81
2023/10/07 11:52:31;;;;;;;5.80;2.20;;;18.10;52.00;;;;;;5041127;28;20660;-80
2023/10/07 11:54:57;;;;;;;3.35;1.77;;;18.00;50.90;;;;;;5037177;28;20103;-81
2023/10/07 11:57:24;;;;;;;6.40;2.22;;;18.00;50.60;;;;;;5046656;28;20107;-81
2023/10/07 11:59:49;;;;;;;4.35;2.08;;;17.90;49.40;;;;;;5045927;28;20072;-81
2023/10/07 12:02:15;;;;;;;10.15;2.30;;;17.90;48.80;;;;;;5049096;28;20028;-81
2023/10/07 12:04:47;;;;;;;8.00;2.00;;;17.90;48.80;;;;;;5050046;28;20040;-81
2023/10/07 12:07:14;;;;;;;3.38;1.67;;;17.90;48.70;;;;;;5046147;28;20039;-80
2023/10/07 12:09:41;;;;;;;4.32;1.98;;;17.90;48.30;;;;;;5039049;28;20389;-81
2023/10/07 12:12:09;;;;;;;3.53;1.85;;;17.80;48.60;;;;;;5051163;28;20025;-81
2023/10/07 12:14:36;;;;;;;4.50;1.92;;;17.80;48.50;;;;;;5031500;28;20032;-81
2023/10/07 12:17:04;;;;;;;11.25;2.45;;;17.80;48.90;;;;;;5041611;28;20016;-81
2023/10/07 12:19:34;;;;;;;5.28;2.03;;;17.80;49.10;;;;;;5044324;28;20041;-80
2023/10/07 12:22:00;;;;;;;4.85;1.92;;;17.80;48.70;;;;;;5050009;28;20047;-80
2023/10/07 12:24:29;;;;;;;4.70;2.15;;;17.80;48.50;;;;;;5038397;28;20091;-80
2023/10/07 12:26:56;;;;;;;4.72;2.05;;;17.80;48.50;;;;;;5051675;28;20390;-80
2023/10/07 12:29:26;;;;;;;8.98;2.13;;;17.80;48.20;;;;;;5041921;28;20036;-80
2023/10/07 12:31:52;;;;;;;6.25;2.10;;;17.80;48.00;;;;;;5041472;28;20029;-79
2023/10/07 12:34:18;;;;;;;6.15;2.22;;;17.80;47.80;;;;;;5041664;28;20022;-81
2023/10/07 12:36:44;;;;;;;5.82;2.47;;;17.90;47.90;;;;;;5044323;28;20029;-81
2023/10/07 12:39:14;;;;;;;6.80;2.20;;;17.90;48.20;;;;;;5042964;28;20032;-81
2023/10/07 12:41:43;;;;;;;7.43;2.15;;;17.90;47.90;;;;;;5042826;28;20029;-80
2023/10/07 12:44:10;;;;;;;7.90;2.40;;;17.90;48.70;;;;;;5045193;28;20020;-80
2023/10/07 12:46:40;;;;;;;9.85;2.25;;;17.90;48.90;;;;;;5039119;28;20025;-80
2023/10/07 12:49:10;;;;;;;6.68;2.28;;;17.90;49.30;;;;;;5032906;28;20090;-80
2023/10/07 12:51:40;;;;;;;10.80;2.50;;;18.00;49.60;;;;;;5036723;28;20025;-80
2023/10/07 12:54:08;;;;;;;4.53;2.17;;;17.90;50.80;;;;;;5025986;28;20108;-81
2023/10/07 12:56:38;;;;;;;7.68;3.40;;;17.90;52.70;;;;;;5040251;28;20194;-80
2023/10/07 12:59:17;;;;;;;7.03;2.95;;;18.00;55.00;;;;;;5041855;28;20025;-79
2023/10/07 13:01:56;;;;;;;7.43;2.40;;;17.90;56.00;;;;;;5044311;28;20049;-80
2023/10/07 13:04:25;;;;;;;8.15;2.53;;;18.00;56.50;;;;;;5027149;28;20119;-84
2023/10/07 13:07:00;;;;;;;5.45;2.30;;;18.00;57.80;;;;;;5020078;28;20030;-80
2023/10/07 13:09:30;;;;;;;5.65;2.90;;;18.10;58.00;;;;;;5030624;28;20053;-80
2023/10/07 13:11:56;;;;;;;5.22;2.53;;;18.10;58.90;;;;;;5037351;28;20022;-81
2023/10/07 13:14:26;;;;;;;7.45;2.92;;;18.10;58.80;;;;;;5039941;28;20037;-81
2023/10/07 13:16:56;;;;;;;6.38;2.67;;;18.10;59.00;;;;;;5041935;28;20402;-80
2023/10/07 13:19:26;;;;;;;;;;;18.00;59.80;;;;;;5031385;28;20045;-80
2023/10/07 13:21:56;;;;;;;9.50;3.90;;;18.00;58.80;;;;;;5048688;28;19952;-80
2023/10/07 13:24:22;;;;;;;10.75;4.60;;;18.00;58.90;;;;;;5042381;28;20120;-80
2023/10/07 13:26:48;;;;;;;9.15;3.67;;;18.20;59.70;;;;;;5038224;28;20100;-80
2023/10/07 13:29:13;;;;;;;13.30;4.60;;;17.90;60.10;;;;;;5045816;28;20040;-81
2023/10/07 13:31:40;;;;;;;6.90;3.58;;;17.90;61.10;;;;;;5039860;28;20043;-80
2023/10/07 13:34:06;;;;;;;6.75;2.90;;;17.90;62.20;;;;;;5037628;28;20472;-80
2023/10/07 13:36:33;;;;;;;7.18;2.70;;;17.90;62.40;;;;;;5046125;28;20056;-80
2023/10/07 13:39:02;;;;;;;12.48;3.50;;;17.90;62.10;;;;;;5039551;28;20026;-80
2023/10/07 13:41:29;;;;;;;10.10;4.13;;;17.90;62.00;;;;;;5042331;28;20036;-81
2023/10/07 13:43:54;;;;;;;6.32;2.95;;;17.90;62.70;;;;;;5046210;28;20112;-80
2023/10/07 13:46:20;;;;;;;4.60;2.00;;;17.90;62.80;;;;;;5046233;28;20097;-80
2023/10/07 13:48:45;;;;;;;5.22;2.63;;;17.90;62.70;;;;;;5047421;28;20470;-80
2023/10/07 13:51:12;;;;;;;5.70;2.50;;;17.90;62.70;;;;;;5026412;28;20041;-80
2023/10/07 13:56:44;;;;;;;20.48;2.83;;;17.90;60.30;;;;;;5041563;28;20040;-80
2023/10/07 13:59:11;;;;;;;5.40;2.45;;;17.90;57.00;;;;;;5044675;28;20032;-80
2023/10/07 14:01:37;;;;;;;15.38;3.22;;;17.90;55.10;;;;;;5039122;28;20037;-80
2023/10/07 14:04:03;;;;;;;7.40;2.22;;;17.90;53.80;;;;;;5033525;28;20037;-81
2023/10/07 14:06:29;;;;;;;8.73;2.63;;;17.80;53.30;;;;;;5043078;28;20091;-80
2023/10/07 14:08:55;;;;;;;5.63;2.80;;;17.80;52.30;;;;;;5015212;28;20025;-80
2023/10/07 14:11:21;;;;;;;6.22;2.70;;;17.80;52.10;;;;;;5015535;28;20511;-81
2023/10/07 14:13:47;;;;;;;7.47;2.28;;;17.80;52.60;;;;;;5033953;28;20048;-80
2023/10/07 14:16:20;;;;;;;4.55;2.47;;;17.80;51.90;;;;;;5036966;28;20653;-80
2023/10/07 14:18:49;;;;;;;5.68;1.90;;;17.90;51.50;;;;;;5021234;28;20025;-80
2023/10/07 14:21:14;;;;;;;11.93;2.15;;;17.90;52.20;;;;;;5034415;28;20039;-81
2023/10/07 14:23:41;;;;;;;6.43;2.58;;;17.90;52.10;;;;;;5040143;28;20033;-80
2023/10/07 14:26:09;;;;;;;9.60;2.70;;;17.90;52.00;;;;;;5048208;28;20755;-80
2023/10/07 14:28:36;;;;;;;6.00;2.67;;;17.90;52.40;;;;;;5042799;28;20028;-80
2023/10/07 14:31:11;;;;;;;7.78;2.80;;;17.90;52.10;;;;;;5043605;28;20039;-80
2023/10/07 14:33:37;;;;;;;8.68;3.00;;;17.80;52.60;;;;;;5045085;28;20465;-80
2023/10/07 14:36:09;;;;;;;5.50;2.42;;;17.90;53.00;;;;;;5041259;28;20013;-80
2023/10/07 14:38:39;;;;;;;6.32;2.58;;;17.80;52.70;;;;;;5043465;28;20474;-80
2023/10/07 14:41:07;;;;;;;9.40;2.33;;;17.90;53.50;;;;;;5052351;28;20030;-79
2023/10/07 14:43:36;;;;;;;6.88;2.40;;;17.90;54.70;;;;;;5049874;28;20440;-80
2023/10/07 14:46:04;;;;;;;6.10;2.63;;;17.90;55.00;;;;;;5046667;28;20112;-80
2023/10/07 14:48:32;;;;;;;12.90;2.65;;;17.90;55.20;;;;;;5047133;28;20067;-80
2023/10/07 14:51:05;;;;;;;6.50;2.58;;;17.90;58.30;;;;;;5039528;28;20021;-80
2023/10/07 14:53:33;;;;;;;12.82;2.28;;;17.80;59.10;;;;;;5043876;28;20033;-80
2023/10/07 14:55:59;;;;;;;7.28;2.83;;;17.80;60.30;;;;;;5029977;28;20036;-79
2023/10/07 14:58:29;;;;;;;6.43;2.75;;;17.80;61.90;;;;;;5043074;28;20527;-80
2023/10/07 15:00:55;;;;;;;10.32;2.75;;;17.80;63.30;;;;;;5044178;28;20036;-80
2023/10/07 15:03:22;;;;;;;6.57;2.75;;;17.80;63.70;;;;;;5040862;28;20037;-80
2023/10/07 15:05:48;;;;;;;5.47;2.83;;;17.80;64.60;;;;;;5017944;28;20029;-80
2023/10/07 15:08:17;;;;;;;6.13;2.50;;;17.80;65.70;;;;;;5018554;28;20024;-80
2023/10/07 15:10:44;;;;;;;6.10;2.80;;;17.80;65.80;;;;;;5021988;28;20079;-80
2023/10/07 15:13:10;;;;;;;12.98;2.75;;;17.80;65.70;;;;;;5021698;28;20463;-80
2023/10/07 15:15:37;;;;;;;8.77;2.50;;;17.80;68.00;;;;;;5022896;28;20362;-80
2023/10/07 15:18:03;;;;;;;5.13;2.40;;;17.80;67.40;;;;;;5025705;28;20472;-80
2023/10/07 15:20:30;;;;;;;7.15;2.63;;;17.80;67.80;;;;;;5040632;28;20045;-80
2023/10/07 15:22:56;;;;;;;6.20;2.55;;;17.80;68.00;;;;;;5018733;28;20025;-80
2023/10/07 15:25:23;;;;;;;7.13;2.75;;;17.80;68.40;;;;;;5042336;28;20033;-80
2023/10/07 15:27:48;;;;;;;7.82;2.30;;;17.80;68.90;;;;;;5019036;28;20675;-80
2023/10/07 15:30:14;;;;;;;9.27;3.28;;;17.80;68.10;;;;;;5039394;28;20034;-80
2023/10/07 15:32:41;;;;;;;7.38;2.65;;;17.80;68.30;;;;;;5037300;28;20587;-80
2023/10/07 15:35:07;;;;;;;12.25;2.58;;;17.80;68.60;;;;;;5038658;28;20031;-81
2023/10/07 15:37:33;;;;;;;7.32;2.38;;;17.80;68.50;;;;;;5020532;28;20404;-80
2023/10/07 15:39:58;;;;;;;7.10;2.75;;;17.90;68.30;;;;;;5037165;28;20029;-80
2023/10/07 15:42:26;;;;;;;5.85;2.35;;;17.80;68.10;;;;;;5038257;28;20032;-79
2023/10/07 15:44:53;;;;;;;10.98;2.92;;;17.70;68.50;;;;;;5036974;28;20082;-79
2023/10/07 15:47:19;;;;;;;7.95;2.92;;;17.60;68.70;;;;;;5038342;28;20028;-79
2023/10/07 15:49:47;;;;;;;5.47;2.40;;;17.60;68.90;;;;;;5036586;28;20031;-78
2023/10/07 15:52:13;;;;;;;7.38;2.80;;;17.60;69.30;;;;;;5035995;28;20781;-78
2023/10/07 15:54:40;;;;;;;7.75;2.58;;;17.50;69.80;;;;;;5035674;28;20143;-78
2023/10/07 15:57:08;;;;;;;12.75;2.95;;;17.60;69.60;;;;;;5037041;28;20477;-78
2023/10/07 15:59:34;;;;;;;7.63;3.30;;;18.30;70.20;;;;;;5016110;28;20045;-80
2023/10/07 16:02:03;;;;;;;6.28;2.30;;;17.50;70.20;;;;;;5036851;28;20484;-79
2023/10/07 16:04:28;;;;;;;11.30;2.95;;;17.50;70.00;;;;;;5035798;28;20473;-75
2023/10/07 16:06:57;;;;;;;5.10;2.55;;;17.60;70.20;;;;;;5037391;28;20036;-78
2023/10/07 16:09:25;;;;;;;9.25;2.70;;;17.60;70.20;;;;;;5037158;28;20108;-78
2023/10/07 16:11:56;;;;;;;6.78;2.95;;;17.60;70.20;;;;;;5036035;28;20155;-78
2023/10/07 16:14:23;;;;;;;7.15;3.08;;;17.60;70.00;;;;;;5017011;28;20025;-78
2023/10/07 16:16:52;;;;;;;8.70;3.22;;;17.50;70.00;;;;;;5036968;28;20518;-79
2023/10/07 16:19:21;;;;;;;8.38;3.28;;;17.50;70.10;;;;;;5036450;28;20120;-79
2023/10/07 16:21:47;;;;;;;8.85;3.58;;;17.50;69.90;;;;;;5036418;28;20048;-78
2023/10/07 16:24:13;;;;;;;7.55;3.30;;;17.50;69.80;;;;;;5017127;28;20063;-78
2023/10/07 16:26:39;;;;;;;11.50;3.38;;;17.50;69.90;;;;;;5038162;28;20035;-78
2023/10/07 16:29:06;;;;;;;9.82;3.00;;;17.50;69.90;;;;;;5037551;28;20098;-77
2023/10/07 16:31:32;;;;;;;6.15;3.33;;;17.50;70.00;;;;;;5016756;28;20031;-78
2023/10/07 16:33:58;;;;;;;9.13;3.22;;;17.50;70.30;;;;;;5037164;28;20390;-79
2023/10/07 16:36:24;;;;;;;9.68;3.60;;;17.50;70.60;;;;;;5036827;28;20488;-82
2023/10/07 16:38:52;;;;;;;10.25;3.35;;;17.40;71.00;;;;;;5037615;28;20025;-78
2023/10/07 16:41:18;;;;;;;7.65;3.25;;;17.40;71.40;;;;;;5039653;28;20507;-91